sensor_id;sensor_type;location;lat;lon;timestamp;P1;durP1;ratioP1;P2;durP2;ratioP2
30370;SDS011;17164;48.590;11.410;2022-07-25T00:00:57;11.30;;;8.03;;
30370;SDS011;17164;48.590;11.410;2022-07-25T00:03:22;9.57;;;8.20;;
30370;SDS011;17164;48.590;11.410;2022-07-25T00:05:48;11.20;;;8.70;;
30370;SDS011;17164;48.590;11.410;2022-07-25T00:08:13;9.97;;;7.30;;
30370;SDS011;17164;48.590;11.410;2022-07-25T00:10:39;9.27;;;7.70;;
30370;SDS011;17164;48.590;11.410;2022-07-25T00:13:05;9.50;;;7.70;;
30370;SDS011;17164;48.590;11.410;2022-07-25T00:15:30;10.97;;;7.60;;
30370;SDS011;17164;48.590;11.410;2022-07-25T00:17:56;10.20;;;7.90;;
30370;SDS011;17164;48.590;11.410;2022-07-25T00:20:22;9.00;;;7.30;;
30370;SDS011;17164;48.590;11.410;2022-07-25T00:22:47;11.30;;;7.60;;
30370;SDS011;17164;48.590;11.410;2022-07-25T00:25:13;11.07;;;7.97;;
30370;SDS011;17164;48.590;11.410;2022-07-25T00:27:38;10.13;;;7.87;;
30370;SDS011;17164;48.590;11.410;2022-07-25T00:30:04;12.50;;;8.30;;
30370;SDS011;17164;48.590;11.410;2022-07-25T00:32:30;9.33;;;7.43;;
30370;SDS011;17164;48.590;11.410;2022-07-25T00:34:56;12.60;;;8.03;;
30370;SDS011;17164;48.590;11.410;2022-07-25T00:37:21;9.83;;;8.13;;
30370;SDS011;17164;48.590;11.410;2022-07-25T00:39:47;10.10;;;8.23;;
30370;SDS011;17164;48.590;11.410;2022-07-25T00:42:13;13.47;;;8.27;;
30370;SDS011;17164;48.590;11.410;2022-07-25T00:44:38;11.10;;;7.67;;
30370;SDS011;17164;48.590;11.410;2022-07-25T00:47:04;11.50;;;8.50;;
30370;SDS011;17164;48.590;11.410;2022-07-25T00:49:30;10.30;;;7.60;;
30370;SDS011;17164;48.590;11.410;2022-07-25T00:51:56;10.97;;;8.40;;
30370;SDS011;17164;48.590;11.410;2022-07-25T00:54:22;13.43;;;8.73;;
30370;SDS011;17164;48.590;11.410;2022-07-25T00:56:49;10.13;;;7.90;;
30370;SDS011;17164;48.590;11.410;2022-07-25T00:59:14;10.27;;;7.80;;
30370;SDS011;17164;48.590;11.410;2022-07-25T01:01:43;13.70;;;8.13;;
30370;SDS011;17164;48.590;11.410;2022-07-25T01:04:11;10.83;;;8.47;;
30370;SDS011;17164;48.590;11.410;2022-07-25T01:06:38;12.23;;;8.93;;
30370;SDS011;17164;48.590;11.410;2022-07-25T01:09:03;10.40;;;8.67;;
30370;SDS011;17164;48.590;11.410;2022-07-25T01:11:29;11.87;;;8.43;;
30370;SDS011;17164;48.590;11.410;2022-07-25T01:13:55;11.07;;;8.23;;
30370;SDS011;17164;48.590;11.410;2022-07-25T01:16:20;12.00;;;8.17;;
30370;SDS011;17164;48.590;11.410;2022-07-25T01:18:46;10.73;;;8.57;;
30370;SDS011;17164;48.590;11.410;2022-07-25T01:21:12;10.80;;;8.23;;
30370;SDS011;17164;48.590;11.410;2022-07-25T01:23:38;12.73;;;8.70;;
30370;SDS011;17164;48.590;11.410;2022-07-25T01:26:05;10.73;;;8.67;;
30370;SDS011;17164;48.590;11.410;2022-07-25T01:28:30;13.00;;;8.37;;
30370;SDS011;17164;48.590;11.410;2022-07-25T01:30:56;12.07;;;8.70;;
30370;SDS011;17164;48.590;11.410;2022-07-25T01:33:22;12.00;;;9.07;;
30370;SDS011;17164;48.590;11.410;2022-07-25T01:35:47;12.53;;;9.13;;
30370;SDS011;17164;48.590;11.410;2022-07-25T01:38:14;11.67;;;8.60;;
30370;SDS011;17164;48.590;11.410;2022-07-25T01:40:40;12.27;;;8.27;;
30370;SDS011;17164;48.590;11.410;2022-07-25T01:43:07;10.70;;;8.73;;
30370;SDS011;17164;48.590;11.410;2022-07-25T01:45:33;11.23;;;8.77;;
30370;SDS011;17164;48.590;11.410;2022-07-25T01:47:59;9.47;;;7.63;;
30370;SDS011;17164;48.590;11.410;2022-07-25T01:50:25;10.37;;;8.70;;
30370;SDS011;17164;48.590;11.410;2022-07-25T01:52:50;11.23;;;9.20;;
30370;SDS011;17164;48.590;11.410;2022-07-25T01:55:16;11.17;;;9.03;;
30370;SDS011;17164;48.590;11.410;2022-07-25T01:57:42;10.60;;;8.80;;
30370;SDS011;17164;48.590;11.410;2022-07-25T02:00:10;10.63;;;8.33;;
30370;SDS011;17164;48.590;11.410;2022-07-25T02:02:38;12.63;;;8.77;;
30370;SDS011;17164;48.590;11.410;2022-07-25T02:05:05;10.40;;;8.60;;
30370;SDS011;17164;48.590;11.410;2022-07-25T02:07:31;9.60;;;8.30;;
30370;SDS011;17164;48.590;11.410;2022-07-25T02:09:56;10.70;;;8.50;;
30370;SDS011;17164;48.590;11.410;2022-07-25T02:12:22;10.27;;;9.07;;
30370;SDS011;17164;48.590;11.410;2022-07-25T02:14:47;13.53;;;9.50;;
30370;SDS011;17164;48.590;11.410;2022-07-25T02:17:13;12.80;;;8.50;;
30370;SDS011;17164;48.590;11.410;2022-07-25T02:19:39;10.30;;;8.43;;
30370;SDS011;17164;48.590;11.410;2022-07-25T02:22:04;12.73;;;9.10;;
30370;SDS011;17164;48.590;11.410;2022-07-25T02:24:30;10.40;;;8.60;;
30370;SDS011;17164;48.590;11.410;2022-07-25T02:26:56;12.03;;;9.03;;
30370;SDS011;17164;48.590;11.410;2022-07-25T02:29:22;14.13;;;8.90;;
30370;SDS011;17164;48.590;11.410;2022-07-25T02:31:47;11.60;;;8.83;;
30370;SDS011;17164;48.590;11.410;2022-07-25T02:34:13;14.13;;;8.87;;
30370;SDS011;17164;48.590;11.410;2022-07-25T02:36:39;10.40;;;9.30;;
30370;SDS011;17164;48.590;11.410;2022-07-25T02:39:05;11.43;;;9.33;;
30370;SDS011;17164;48.590;11.410;2022-07-25T02:41:30;11.90;;;9.80;;
30370;SDS011;17164;48.590;11.410;2022-07-25T02:43:56;12.23;;;10.13;;
30370;SDS011;17164;48.590;11.410;2022-07-25T02:46:22;11.80;;;9.27;;
30370;SDS011;17164;48.590;11.410;2022-07-25T02:48:47;10.97;;;9.03;;
30370;SDS011;17164;48.590;11.410;2022-07-25T02:51:13;14.53;;;9.47;;
30370;SDS011;17164;48.590;11.410;2022-07-25T02:53:39;10.60;;;9.03;;
30370;SDS011;17164;48.590;11.410;2022-07-25T02:56:04;11.30;;;9.20;;
30370;SDS011;17164;48.590;11.410;2022-07-25T02:58:30;14.67;;;10.00;;
30370;SDS011;17164;48.590;11.410;2022-07-25T03:00:55;11.60;;;9.17;;
30370;SDS011;17164;48.590;11.410;2022-07-25T03:03:21;11.83;;;9.73;;
30370;SDS011;17164;48.590;11.410;2022-07-25T03:05:47;12.30;;;10.13;;
30370;SDS011;17164;48.590;11.410;2022-07-25T03:08:13;11.93;;;9.97;;
30370;SDS011;17164;48.590;11.410;2022-07-25T03:10:38;11.23;;;9.10;;
30370;SDS011;17164;48.590;11.410;2022-07-25T03:13:04;11.50;;;9.63;;
30370;SDS011;17164;48.590;11.410;2022-07-25T03:15:30;11.30;;;10.10;;
30370;SDS011;17164;48.590;11.410;2022-07-25T03:17:55;11.03;;;9.53;;
30370;SDS011;17164;48.590;11.410;2022-07-25T03:20:21;13.90;;;10.23;;
30370;SDS011;17164;48.590;11.410;2022-07-25T03:22:46;11.00;;;9.70;;
30370;SDS011;17164;48.590;11.410;2022-07-25T03:25:12;13.30;;;10.00;;
30370;SDS011;17164;48.590;11.410;2022-07-25T03:27:38;13.50;;;10.53;;
30370;SDS011;17164;48.590;11.410;2022-07-25T03:30:03;12.20;;;10.00;;
30370;SDS011;17164;48.590;11.410;2022-07-25T03:32:29;12.40;;;10.13;;
30370;SDS011;17164;48.590;11.410;2022-07-25T03:34:55;11.67;;;9.77;;
30370;SDS011;17164;48.590;11.410;2022-07-25T03:37:21;10.77;;;9.17;;
30370;SDS011;17164;48.590;11.410;2022-07-25T03:39:46;12.53;;;10.20;;
30370;SDS011;17164;48.590;11.410;2022-07-25T03:42:12;13.57;;;9.73;;
30370;SDS011;17164;48.590;11.410;2022-07-25T03:44:37;11.27;;;9.53;;
30370;SDS011;17164;48.590;11.410;2022-07-25T03:47:03;14.33;;;9.70;;
30370;SDS011;17164;48.590;11.410;2022-07-25T03:49:29;13.27;;;9.60;;
30370;SDS011;17164;48.590;11.410;2022-07-25T03:51:55;12.80;;;9.50;;
30370;SDS011;17164;48.590;11.410;2022-07-25T03:54:21;12.33;;;10.13;;
30370;SDS011;17164;48.590;11.410;2022-07-25T03:56:47;12.50;;;9.83;;
30370;SDS011;17164;48.590;11.410;2022-07-25T03:59:14;13.43;;;9.53;;
30370;SDS011;17164;48.590;11.410;2022-07-25T04:01:42;17.77;;;10.57;;
30370;SDS011;17164;48.590;11.410;2022-07-25T04:04:09;14.27;;;10.80;;
30370;SDS011;17164;48.590;11.410;2022-07-25T04:06:35;13.63;;;11.53;;
30370;SDS011;17164;48.590;11.410;2022-07-25T04:09:02;11.50;;;9.43;;
30370;SDS011;17164;48.590;11.410;2022-07-25T04:11:28;12.00;;;10.70;;
30370;SDS011;17164;48.590;11.410;2022-07-25T04:13:55;11.53;;;9.93;;
30370;SDS011;17164;48.590;11.410;2022-07-25T04:16:21;12.33;;;10.23;;
30370;SDS011;17164;48.590;11.410;2022-07-25T04:18:47;12.57;;;9.67;;
30370;SDS011;17164;48.590;11.410;2022-07-25T04:21:12;13.13;;;10.07;;
30370;SDS011;17164;48.590;11.410;2022-07-25T04:23:38;11.73;;;9.10;;
30370;SDS011;17164;48.590;11.410;2022-07-25T04:26:04;13.87;;;9.73;;
30370;SDS011;17164;48.590;11.410;2022-07-25T04:28:29;12.23;;;9.47;;
30370;SDS011;17164;48.590;11.410;2022-07-25T04:30:56;11.90;;;9.00;;
30370;SDS011;17164;48.590;11.410;2022-07-25T04:33:22;15.73;;;9.20;;
30370;SDS011;17164;48.590;11.410;2022-07-25T04:35:48;15.37;;;8.77;;
30370;SDS011;17164;48.590;11.410;2022-07-25T04:38:14;12.17;;;9.03;;
30370;SDS011;17164;48.590;11.410;2022-07-25T04:40:39;13.67;;;9.47;;
30370;SDS011;17164;48.590;11.410;2022-07-25T04:43:05;12.33;;;8.87;;
30370;SDS011;17164;48.590;11.410;2022-07-25T04:45:31;15.30;;;9.87;;
30370;SDS011;17164;48.590;11.410;2022-07-25T04:47:58;11.73;;;9.87;;
30370;SDS011;17164;48.590;11.410;2022-07-25T04:50:24;12.43;;;9.93;;
30370;SDS011;17164;48.590;11.410;2022-07-25T04:52:49;13.10;;;9.90;;
30370;SDS011;17164;48.590;11.410;2022-07-25T04:55:15;11.00;;;9.33;;
30370;SDS011;17164;48.590;11.410;2022-07-25T04:57:41;15.70;;;10.50;;
30370;SDS011;17164;48.590;11.410;2022-07-25T05:00:07;14.23;;;11.27;;
30370;SDS011;17164;48.590;11.410;2022-07-25T05:02:34;12.63;;;10.37;;
30370;SDS011;17164;48.590;11.410;2022-07-25T05:05:00;14.80;;;10.80;;
30370;SDS011;17164;48.590;11.410;2022-07-25T05:07:26;12.93;;;10.43;;
30370;SDS011;17164;48.590;11.410;2022-07-25T05:09:52;12.93;;;11.20;;
30370;SDS011;17164;48.590;11.410;2022-07-25T05:12:19;14.10;;;10.67;;
30370;SDS011;17164;48.590;11.410;2022-07-25T05:14:45;11.97;;;10.17;;
30370;SDS011;17164;48.590;11.410;2022-07-25T05:17:11;13.37;;;10.87;;
30370;SDS011;17164;48.590;11.410;2022-07-25T05:19:37;13.03;;;10.73;;
30370;SDS011;17164;48.590;11.410;2022-07-25T05:22:02;13.57;;;11.33;;
30370;SDS011;17164;48.590;11.410;2022-07-25T05:24:31;15.40;;;10.57;;
30370;SDS011;17164;48.590;11.410;2022-07-25T05:27:01;15.10;;;10.70;;
30370;SDS011;17164;48.590;11.410;2022-07-25T05:29:27;15.23;;;11.83;;
30370;SDS011;17164;48.590;11.410;2022-07-25T05:31:53;14.37;;;11.27;;
30370;SDS011;17164;48.590;11.410;2022-07-25T05:34:18;15.40;;;12.67;;
30370;SDS011;17164;48.590;11.410;2022-07-25T05:36:44;15.27;;;11.80;;
30370;SDS011;17164;48.590;11.410;2022-07-25T05:39:10;14.33;;;11.63;;
30370;SDS011;17164;48.590;11.410;2022-07-25T05:41:35;14.07;;;11.33;;
30370;SDS011;17164;48.590;11.410;2022-07-25T05:44:01;12.40;;;11.07;;
30370;SDS011;17164;48.590;11.410;2022-07-25T05:46:27;12.60;;;10.27;;
30370;SDS011;17164;48.590;11.410;2022-07-25T05:48:52;14.40;;;12.33;;
30370;SDS011;17164;48.590;11.410;2022-07-25T05:51:18;15.40;;;10.60;;
30370;SDS011;17164;48.590;11.410;2022-07-25T05:53:44;14.57;;;10.83;;
30370;SDS011;17164;48.590;11.410;2022-07-25T05:56:10;13.17;;;11.17;;
30370;SDS011;17164;48.590;11.410;2022-07-25T05:58:35;12.80;;;11.10;;
30370;SDS011;17164;48.590;11.410;2022-07-25T06:01:04;14.87;;;11.70;;
30370;SDS011;17164;48.590;11.410;2022-07-25T06:03:31;15.30;;;11.27;;
30370;SDS011;17164;48.590;11.410;2022-07-25T06:05:58;19.37;;;10.73;;
30370;SDS011;17164;48.590;11.410;2022-07-25T06:08:24;14.17;;;11.07;;
30370;SDS011;17164;48.590;11.410;2022-07-25T06:10:52;12.60;;;10.67;;
30370;SDS011;17164;48.590;11.410;2022-07-25T06:13:18;16.23;;;11.50;;
30370;SDS011;17164;48.590;11.410;2022-07-25T06:15:44;11.33;;;10.00;;
30370;SDS011;17164;48.590;11.410;2022-07-25T06:18:10;12.73;;;9.87;;
30370;SDS011;17164;48.590;11.410;2022-07-25T06:20:35;12.40;;;10.03;;
30370;SDS011;17164;48.590;11.410;2022-07-25T06:23:01;14.50;;;11.10;;
30370;SDS011;17164;48.590;11.410;2022-07-25T06:25:28;12.23;;;9.07;;
30370;SDS011;17164;48.590;11.410;2022-07-25T06:27:54;14.27;;;10.33;;
30370;SDS011;17164;48.590;11.410;2022-07-25T06:30:20;13.37;;;9.83;;
30370;SDS011;17164;48.590;11.410;2022-07-25T06:32:46;14.50;;;9.67;;
30370;SDS011;17164;48.590;11.410;2022-07-25T06:35:13;10.70;;;8.77;;
30370;SDS011;17164;48.590;11.410;2022-07-25T06:37:40;9.57;;;8.53;;
30370;SDS011;17164;48.590;11.410;2022-07-25T06:40:05;11.37;;;9.07;;
30370;SDS011;17164;48.590;11.410;2022-07-25T06:42:32;9.97;;;8.10;;
30370;SDS011;17164;48.590;11.410;2022-07-25T06:45:04;10.60;;;8.80;;
30370;SDS011;17164;48.590;11.410;2022-07-25T06:47:31;11.43;;;8.13;;
30370;SDS011;17164;48.590;11.410;2022-07-25T06:49:57;9.57;;;8.37;;
30370;SDS011;17164;48.590;11.410;2022-07-25T06:52:23;9.87;;;7.80;;
30370;SDS011;17164;48.590;11.410;2022-07-25T06:54:48;12.07;;;8.53;;
30370;SDS011;17164;48.590;11.410;2022-07-25T06:57:14;12.87;;;8.63;;
30370;SDS011;17164;48.590;11.410;2022-07-25T06:59:39;10.80;;;8.30;;
30370;SDS011;17164;48.590;11.410;2022-07-25T07:02:05;11.97;;;8.40;;
30370;SDS011;17164;48.590;11.410;2022-07-25T07:04:30;10.73;;;7.70;;
30370;SDS011;17164;48.590;11.410;2022-07-25T07:06:56;10.17;;;8.23;;
30370;SDS011;17164;48.590;11.410;2022-07-25T07:09:22;11.43;;;8.53;;
30370;SDS011;17164;48.590;11.410;2022-07-25T07:11:47;9.77;;;8.47;;
30370;SDS011;17164;48.590;11.410;2022-07-25T07:14:13;11.83;;;8.87;;
30370;SDS011;17164;48.590;11.410;2022-07-25T07:16:39;10.13;;;8.53;;
30370;SDS011;17164;48.590;11.410;2022-07-25T07:19:06;10.33;;;8.43;;
30370;SDS011;17164;48.590;11.410;2022-07-25T07:21:34;12.23;;;8.93;;
30370;SDS011;17164;48.590;11.410;2022-07-25T07:24:00;11.07;;;8.33;;
30370;SDS011;17164;48.590;11.410;2022-07-25T07:26:26;11.93;;;8.97;;
30370;SDS011;17164;48.590;11.410;2022-07-25T07:28:51;11.90;;;9.20;;
30370;SDS011;17164;48.590;11.410;2022-07-25T07:31:18;13.93;;;9.13;;
30370;SDS011;17164;48.590;11.410;2022-07-25T07:33:44;10.83;;;8.40;;
30370;SDS011;17164;48.590;11.410;2022-07-25T07:36:09;10.77;;;8.40;;
30370;SDS011;17164;48.590;11.410;2022-07-25T07:38:35;11.33;;;8.27;;
30370;SDS011;17164;48.590;11.410;2022-07-25T07:41:01;13.60;;;8.03;;
30370;SDS011;17164;48.590;11.410;2022-07-25T07:43:26;10.97;;;8.43;;
30370;SDS011;17164;48.590;11.410;2022-07-25T07:45:56;12.20;;;8.47;;
30370;SDS011;17164;48.590;11.410;2022-07-25T07:48:24;9.17;;;8.10;;
30370;SDS011;17164;48.590;11.410;2022-07-25T07:50:50;10.23;;;8.37;;
30370;SDS011;17164;48.590;11.410;2022-07-25T07:53:16;9.87;;;8.47;;
30370;SDS011;17164;48.590;11.410;2022-07-25T07:55:41;10.57;;;8.43;;
30370;SDS011;17164;48.590;11.410;2022-07-25T07:58:16;9.37;;;7.90;;
30370;SDS011;17164;48.590;11.410;2022-07-25T08:00:43;10.40;;;7.73;;
30370;SDS011;17164;48.590;11.410;2022-07-25T08:03:10;12.10;;;8.27;;
30370;SDS011;17164;48.590;11.410;2022-07-25T08:05:38;10.73;;;7.73;;
30370;SDS011;17164;48.590;11.410;2022-07-25T08:08:05;10.63;;;8.30;;
30370;SDS011;17164;48.590;11.410;2022-07-25T08:10:34;10.37;;;8.23;;
30370;SDS011;17164;48.590;11.410;2022-07-25T08:13:01;9.83;;;7.93;;
30370;SDS011;17164;48.590;11.410;2022-07-25T08:15:28;10.63;;;7.97;;
30370;SDS011;17164;48.590;11.410;2022-07-25T08:17:53;10.90;;;8.03;;
30370;SDS011;17164;48.590;11.410;2022-07-25T08:20:20;10.57;;;8.47;;
30370;SDS011;17164;48.590;11.410;2022-07-25T08:22:49;9.07;;;7.80;;
30370;SDS011;17164;48.590;11.410;2022-07-25T08:25:15;10.27;;;8.43;;
30370;SDS011;17164;48.590;11.410;2022-07-25T08:27:43;8.80;;;7.70;;
30370;SDS011;17164;48.590;11.410;2022-07-25T08:30:10;9.13;;;8.03;;
30370;SDS011;17164;48.590;11.410;2022-07-25T08:35:13;8.83;;;7.93;;
30370;SDS011;17164;48.590;11.410;2022-07-25T08:37:39;9.37;;;8.40;;
30370;SDS011;17164;48.590;11.410;2022-07-25T08:40:04;11.73;;;8.30;;
30370;SDS011;17164;48.590;11.410;2022-07-25T08:42:31;9.00;;;8.10;;
30370;SDS011;17164;48.590;11.410;2022-07-25T08:44:59;14.13;;;8.77;;
30370;SDS011;17164;48.590;11.410;2022-07-25T08:47:29;9.40;;;8.03;;
30370;SDS011;17164;48.590;11.410;2022-07-25T08:49:55;11.60;;;8.23;;
30370;SDS011;17164;48.590;11.410;2022-07-25T08:52:22;10.43;;;8.20;;
30370;SDS011;17164;48.590;11.410;2022-07-25T08:54:48;9.83;;;8.03;;
30370;SDS011;17164;48.590;11.410;2022-07-25T08:57:15;8.97;;;8.07;;
30370;SDS011;17164;48.590;11.410;2022-07-25T08:59:41;8.53;;;7.63;;
30370;SDS011;17164;48.590;11.410;2022-07-25T09:02:11;9.73;;;8.10;;
30370;SDS011;17164;48.590;11.410;2022-07-25T09:04:37;11.10;;;7.90;;
30370;SDS011;17164;48.590;11.410;2022-07-25T09:07:03;11.00;;;8.17;;
30370;SDS011;17164;48.590;11.410;2022-07-25T09:09:30;9.17;;;8.27;;
30370;SDS011;17164;48.590;11.410;2022-07-25T09:12:00;12.03;;;8.40;;
30370;SDS011;17164;48.590;11.410;2022-07-25T09:14:26;10.93;;;7.63;;
30370;SDS011;17164;48.590;11.410;2022-07-25T09:16:54;9.73;;;8.73;;
30370;SDS011;17164;48.590;11.410;2022-07-25T09:19:21;9.73;;;7.33;;
30370;SDS011;17164;48.590;11.410;2022-07-25T09:22:00;11.90;;;8.20;;
30370;SDS011;17164;48.590;11.410;2022-07-25T09:24:28;9.67;;;7.47;;
30370;SDS011;17164;48.590;11.410;2022-07-25T09:26:55;10.80;;;8.67;;
30370;SDS011;17164;48.590;11.410;2022-07-25T09:29:30;10.17;;;8.13;;
30370;SDS011;17164;48.590;11.410;2022-07-25T09:31:57;14.10;;;8.20;;
30370;SDS011;17164;48.590;11.410;2022-07-25T09:34:40;8.87;;;7.73;;
30370;SDS011;17164;48.590;11.410;2022-07-25T09:37:08;8.27;;;7.30;;
30370;SDS011;17164;48.590;11.410;2022-07-25T09:39:43;21.33;;;9.07;;
30370;SDS011;17164;48.590;11.410;2022-07-25T09:42:16;18.13;;;8.20;;
30370;SDS011;17164;48.590;11.410;2022-07-25T09:47:37;10.07;;;8.00;;
30370;SDS011;17164;48.590;11.410;2022-07-25T09:50:24;15.57;;;8.23;;
30370;SDS011;17164;48.590;11.410;2022-07-25T09:52:51;8.67;;;7.63;;
30370;SDS011;17164;48.590;11.410;2022-07-25T09:55:19;8.53;;;7.60;;
30370;SDS011;17164;48.590;11.410;2022-07-25T09:57:45;10.47;;;7.00;;
30370;SDS011;17164;48.590;11.410;2022-07-25T10:00:13;8.63;;;7.47;;
30370;SDS011;17164;48.590;11.410;2022-07-25T10:02:47;8.10;;;7.13;;
30370;SDS011;17164;48.590;11.410;2022-07-25T10:08:10;9.60;;;8.00;;
30370;SDS011;17164;48.590;11.410;2022-07-25T10:10:38;9.57;;;7.93;;
30370;SDS011;17164;48.590;11.410;2022-07-25T10:13:09;8.90;;;8.00;;
30370;SDS011;17164;48.590;11.410;2022-07-25T10:15:39;8.83;;;7.93;;
30370;SDS011;17164;48.590;11.410;2022-07-25T10:18:15;10.83;;;8.07;;
30370;SDS011;17164;48.590;11.410;2022-07-25T10:20:43;9.30;;;8.27;;
30370;SDS011;17164;48.590;11.410;2022-07-25T10:23:26;13.27;;;7.43;;
30370;SDS011;17164;48.590;11.410;2022-07-25T10:34:07;12.97;;;8.60;;
30370;SDS011;17164;48.590;11.410;2022-07-25T10:36:47;9.33;;;7.80;;
30370;SDS011;17164;48.590;11.410;2022-07-25T10:39:21;11.83;;;7.47;;
30370;SDS011;17164;48.590;11.410;2022-07-25T10:41:54;10.50;;;7.93;;
30370;SDS011;17164;48.590;11.410;2022-07-25T10:44:27;10.37;;;8.60;;
30370;SDS011;17164;48.590;11.410;2022-07-25T10:47:10;8.57;;;7.53;;
30370;SDS011;17164;48.590;11.410;2022-07-25T10:49:41;9.60;;;8.57;;
30370;SDS011;17164;48.590;11.410;2022-07-25T10:52:16;8.90;;;8.00;;
30370;SDS011;17164;48.590;11.410;2022-07-25T10:54:57;10.20;;;7.47;;
30370;SDS011;17164;48.590;11.410;2022-07-25T10:57:24;9.63;;;7.90;;
30370;SDS011;17164;48.590;11.410;2022-07-25T10:59:50;9.87;;;7.50;;
30370;SDS011;17164;48.590;11.410;2022-07-25T11:02:16;8.97;;;7.57;;
30370;SDS011;17164;48.590;11.410;2022-07-25T11:04:58;8.77;;;7.30;;
30370;SDS011;17164;48.590;11.410;2022-07-25T11:07:26;8.53;;;7.60;;
30370;SDS011;17164;48.590;11.410;2022-07-25T11:09:56;8.27;;;7.20;;
30370;SDS011;17164;48.590;11.410;2022-07-25T11:12:23;8.73;;;6.60;;
30370;SDS011;17164;48.590;11.410;2022-07-25T11:14:49;8.53;;;7.27;;
30370;SDS011;17164;48.590;11.410;2022-07-25T11:17:17;7.83;;;6.10;;
30370;SDS011;17164;48.590;11.410;2022-07-25T11:19:54;8.33;;;6.13;;
30370;SDS011;17164;48.590;11.410;2022-07-25T11:22:20;11.63;;;5.60;;
30370;SDS011;17164;48.590;11.410;2022-07-25T11:24:46;8.87;;;5.03;;
30370;SDS011;17164;48.590;11.410;2022-07-25T11:27:18;10.00;;;5.60;;
30370;SDS011;17164;48.590;11.410;2022-07-25T11:29:52;11.20;;;5.53;;
30370;SDS011;17164;48.590;11.410;2022-07-25T11:32:18;6.97;;;5.07;;
30370;SDS011;17164;48.590;11.410;2022-07-25T11:34:48;7.07;;;5.60;;
30370;SDS011;17164;48.590;11.410;2022-07-25T11:37:16;6.13;;;5.37;;
30370;SDS011;17164;48.590;11.410;2022-07-25T11:39:44;5.43;;;4.47;;
30370;SDS011;17164;48.590;11.410;2022-07-25T11:42:12;6.70;;;5.07;;
30370;SDS011;17164;48.590;11.410;2022-07-25T11:44:44;6.60;;;5.30;;
30370;SDS011;17164;48.590;11.410;2022-07-25T11:49:50;8.33;;;6.40;;
30370;SDS011;17164;48.590;11.410;2022-07-25T11:52:24;5.93;;;5.10;;
30370;SDS011;17164;48.590;11.410;2022-07-25T11:55:01;7.73;;;5.23;;
30370;SDS011;17164;48.590;11.410;2022-07-25T11:57:30;7.43;;;5.30;;
30370;SDS011;17164;48.590;11.410;2022-07-25T11:59:57;9.33;;;5.20;;
30370;SDS011;17164;48.590;11.410;2022-07-25T12:02:27;5.57;;;4.97;;
30370;SDS011;17164;48.590;11.410;2022-07-25T12:05:01;7.03;;;4.50;;
30370;SDS011;17164;48.590;11.410;2022-07-25T12:10:15;5.47;;;4.60;;
30370;SDS011;17164;48.590;11.410;2022-07-25T12:12:52;5.43;;;4.50;;
30370;SDS011;17164;48.590;11.410;2022-07-25T12:15:23;7.20;;;4.80;;
30370;SDS011;17164;48.590;11.410;2022-07-25T12:17:51;5.60;;;4.73;;
30370;SDS011;17164;48.590;11.410;2022-07-25T12:20:23;5.67;;;4.60;;
30370;SDS011;17164;48.590;11.410;2022-07-25T12:22:53;8.47;;;4.53;;
30370;SDS011;17164;48.590;11.410;2022-07-25T12:25:20;6.97;;;4.53;;
30370;SDS011;17164;48.590;11.410;2022-07-25T12:27:47;4.73;;;3.97;;
30370;SDS011;17164;48.590;11.410;2022-07-25T12:30:13;3.63;;;3.33;;
30370;SDS011;17164;48.590;11.410;2022-07-25T12:32:40;5.77;;;4.60;;
30370;SDS011;17164;48.590;11.410;2022-07-25T12:35:06;7.00;;;4.87;;
30370;SDS011;17164;48.590;11.410;2022-07-25T12:37:33;5.77;;;4.47;;
30370;SDS011;17164;48.590;11.410;2022-07-25T12:39:59;6.10;;;4.23;;
30370;SDS011;17164;48.590;11.410;2022-07-25T12:42:24;5.13;;;4.37;;
30370;SDS011;17164;48.590;11.410;2022-07-25T12:44:52;5.83;;;4.40;;
30370;SDS011;17164;48.590;11.410;2022-07-25T12:47:19;7.33;;;4.77;;
30370;SDS011;17164;48.590;11.410;2022-07-25T12:49:44;5.33;;;4.20;;
30370;SDS011;17164;48.590;11.410;2022-07-25T12:52:10;5.13;;;4.27;;
30370;SDS011;17164;48.590;11.410;2022-07-25T12:54:36;6.30;;;4.30;;
30370;SDS011;17164;48.590;11.410;2022-07-25T12:57:01;6.33;;;4.40;;
30370;SDS011;17164;48.590;11.410;2022-07-25T12:59:27;6.47;;;4.40;;
30370;SDS011;17164;48.590;11.410;2022-07-25T13:01:53;4.90;;;4.30;;
30370;SDS011;17164;48.590;11.410;2022-07-25T13:04:18;4.30;;;3.40;;
30370;SDS011;17164;48.590;11.410;2022-07-25T13:06:44;4.43;;;3.50;;
30370;SDS011;17164;48.590;11.410;2022-07-25T13:09:10;4.67;;;3.50;;
30370;SDS011;17164;48.590;11.410;2022-07-25T13:11:35;6.47;;;3.60;;
30370;SDS011;17164;48.590;11.410;2022-07-25T13:14:01;4.97;;;3.67;;
30370;SDS011;17164;48.590;11.410;2022-07-25T13:16:27;4.67;;;3.73;;
30370;SDS011;17164;48.590;11.410;2022-07-25T13:18:53;4.20;;;3.80;;
30370;SDS011;17164;48.590;11.410;2022-07-25T13:21:18;8.80;;;3.90;;
30370;SDS011;17164;48.590;11.410;2022-07-25T13:23:45;4.73;;;3.57;;
30370;SDS011;17164;48.590;11.410;2022-07-25T13:26:10;4.80;;;4.17;;
30370;SDS011;17164;48.590;11.410;2022-07-25T13:28:36;6.13;;;3.90;;
30370;SDS011;17164;48.590;11.410;2022-07-25T13:31:02;68.87;;;6.80;;
30370;SDS011;17164;48.590;11.410;2022-07-25T13:33:30;12.67;;;4.47;;
30370;SDS011;17164;48.590;11.410;2022-07-25T13:35:57;8.37;;;4.10;;
30370;SDS011;17164;48.590;11.410;2022-07-25T13:38:22;9.47;;;3.87;;
30370;SDS011;17164;48.590;11.410;2022-07-25T13:40:48;4.90;;;3.67;;
30370;SDS011;17164;48.590;11.410;2022-07-25T13:43:13;6.83;;;3.93;;
30370;SDS011;17164;48.590;11.410;2022-07-25T13:45:39;5.13;;;3.87;;
30370;SDS011;17164;48.590;11.410;2022-07-25T13:48:06;5.97;;;4.00;;
30370;SDS011;17164;48.590;11.410;2022-07-25T13:50:32;5.53;;;3.60;;
30370;SDS011;17164;48.590;11.410;2022-07-25T13:52:59;5.53;;;3.87;;
30370;SDS011;17164;48.590;11.410;2022-07-25T13:55:29;5.77;;;4.10;;
30370;SDS011;17164;48.590;11.410;2022-07-25T13:57:55;5.77;;;3.57;;
30370;SDS011;17164;48.590;11.410;2022-07-25T14:00:21;4.07;;;3.40;;
30370;SDS011;17164;48.590;11.410;2022-07-25T14:02:47;6.57;;;4.30;;
30370;SDS011;17164;48.590;11.410;2022-07-25T14:05:12;6.33;;;3.90;;
30370;SDS011;17164;48.590;11.410;2022-07-25T14:07:38;6.40;;;3.40;;
30370;SDS011;17164;48.590;11.410;2022-07-25T14:10:04;7.13;;;3.90;;
30370;SDS011;17164;48.590;11.410;2022-07-25T14:12:32;5.73;;;3.67;;
30370;SDS011;17164;48.590;11.410;2022-07-25T14:14:59;5.10;;;3.97;;
30370;SDS011;17164;48.590;11.410;2022-07-25T14:17:25;5.10;;;4.00;;
30370;SDS011;17164;48.590;11.410;2022-07-25T14:19:51;5.33;;;3.67;;
30370;SDS011;17164;48.590;11.410;2022-07-25T14:22:17;5.00;;;3.83;;
30370;SDS011;17164;48.590;11.410;2022-07-25T14:24:42;6.73;;;3.90;;
30370;SDS011;17164;48.590;11.410;2022-07-25T14:27:08;5.20;;;3.90;;
30370;SDS011;17164;48.590;11.410;2022-07-25T14:29:34;6.60;;;4.30;;
30370;SDS011;17164;48.590;11.410;2022-07-25T14:32:02;5.13;;;4.13;;
30370;SDS011;17164;48.590;11.410;2022-07-25T14:34:32;6.60;;;3.90;;
30370;SDS011;17164;48.590;11.410;2022-07-25T14:36:58;4.80;;;3.83;;
30370;SDS011;17164;48.590;11.410;2022-07-25T14:39:24;7.27;;;4.40;;
30370;SDS011;17164;48.590;11.410;2022-07-25T14:41:49;8.73;;;4.73;;
30370;SDS011;17164;48.590;11.410;2022-07-25T14:44:15;8.73;;;4.00;;